THY5ZU LTFM-LTBJ
Flight info
| Callsign | THY5ZU |
|---|---|
| Flight time | 0h 42m |
| Altitude | 32000 |
| Route | IVGUS DCT BIG/N0455F310 UG80 BERGO DCT IMR DCT AYDIN |
| Aircraft | B738/M-SDE2E3FGHIRWY/LB1 |
Departure
| Time | 2026-05-07 18:21 |
|---|---|
| Airport | İstanbul Airport (LTFM) |
Arrival
| Time | 2026-05-07 19:03 |
|---|---|
| Airport | Adnan Menderes International Airport (LTBJ) |
| Time | Latitude | Longitude | Altitude | Speed | Heading |
|---|---|---|---|---|---|
| 2026-05-07 17:54 | 41.26648 | 28.73747 | 333 ft | 0 kts | 272° |
| 2026-05-07 18:06 | 41.26648 | 28.73756 | 333 ft | 4 kts | 272° |
| 2026-05-07 18:06 | 41.26646 | 28.73792 | 330 ft | 4 kts | 275° |
| 2026-05-07 18:06 | 41.26643 | 28.73827 | 329 ft | 4 kts | 282° |
| 2026-05-07 18:06 | 41.26635 | 28.73860 | 328 ft | 4 kts | 306° |
| 2026-05-07 18:07 | 41.26620 | 28.73875 | 329 ft | 1 kts | 359° |
| 2026-05-07 18:11 | 41.26637 | 28.73874 | 331 ft | 7 kts | 359° |
| 2026-05-07 18:11 | 41.26704 | 28.73876 | 331 ft | 10 kts | 358° |
| 2026-05-07 18:12 | 41.26775 | 28.73874 | 333 ft | 10 kts | 360° |
| 2026-05-07 18:12 | 41.26843 | 28.73873 | 333 ft | 10 kts | 359° |
| 2026-05-07 18:12 | 41.26910 | 28.73872 | 332 ft | 9 kts | 359° |
| 2026-05-07 18:12 | 41.26975 | 28.73871 | 332 ft | 9 kts | 359° |
| 2026-05-07 18:13 | 41.27036 | 28.73854 | 330 ft | 9 kts | 319° |
| 2026-05-07 18:13 | 41.27050 | 28.73766 | 333 ft | 12 kts | 269° |
| 2026-05-07 18:13 | 41.27049 | 28.73622 | 332 ft | 17 kts | 270° |
| 2026-05-07 18:13 | 41.27049 | 28.73463 | 333 ft | 17 kts | 271° |
| 2026-05-07 18:14 | 41.27045 | 28.73311 | 331 ft | 16 kts | 266° |
| 2026-05-07 18:14 | 41.27043 | 28.73164 | 333 ft | 16 kts | 269° |
| 2026-05-07 18:14 | 41.27037 | 28.73024 | 333 ft | 15 kts | 252° |
| 2026-05-07 18:14 | 41.26947 | 28.72988 | 332 ft | 14 kts | 178° |
| 2026-05-07 18:15 | 41.26849 | 28.72990 | 329 ft | 14 kts | 179° |
| 2026-05-07 18:15 | 41.26756 | 28.72991 | 330 ft | 13 kts | 184° |
| 2026-05-07 18:15 | 41.26719 | 28.72948 | 333 ft | 0 kts | 262° |
| 2026-05-07 18:18 | 41.26717 | 28.72933 | 333 ft | 6 kts | 263° |
| 2026-05-07 18:19 | 41.26715 | 28.72861 | 333 ft | 8 kts | 268° |
| 2026-05-07 18:19 | 41.26714 | 28.72787 | 333 ft | 8 kts | 269° |
| 2026-05-07 18:19 | 41.26713 | 28.72707 | 329 ft | 10 kts | 269° |
| 2026-05-07 18:19 | 41.26712 | 28.72590 | 333 ft | 14 kts | 269° |
| 2026-05-07 18:20 | 41.26753 | 28.72511 | 332 ft | 12 kts | 6° |
| 2026-05-07 18:20 | 41.26865 | 28.72512 | 331 ft | 36 kts | 359° |
| 2026-05-07 18:20 | 41.27448 | 28.72501 | 328 ft | 130 kts | 359° |
| 2026-05-07 18:20 | 41.28608 | 28.72470 | 539 ft | 195 kts | 359° |
| 2026-05-07 18:21 | 41.30120 | 28.72458 | 990 ft | 238 kts | 359° |
| 2026-05-07 18:21 | 41.31818 | 28.72477 | 2073 ft | 241 kts | 359° |
| 2026-05-07 18:21 | 41.33479 | 28.72508 | 3251 ft | 243 kts | 357° |
| 2026-05-07 18:21 | 41.35205 | 28.72514 | 4026 ft | 252 kts | 352° |
| 2026-05-07 18:22 | 41.36799 | 28.71665 | 4935 ft | 249 kts | 319° |
| 2026-05-07 18:22 | 41.37581 | 28.70493 | 5516 ft | 255 kts | 300° |
| 2026-05-07 18:22 | 41.38232 | 28.67452 | 6574 ft | 266 kts | 272° |
| 2026-05-07 18:22 | 41.38083 | 28.64989 | 7424 ft | 272 kts | 251° |
| 2026-05-07 18:23 | 41.37037 | 28.62893 | 8318 ft | 279 kts | 222° |
| 2026-05-07 18:23 | 41.35340 | 28.61548 | 9224 ft | 286 kts | 203° |
| 2026-05-07 18:23 | 41.33449 | 28.60634 | 10095 ft | 291 kts | 200° |
| 2026-05-07 18:23 | 41.31500 | 28.59785 | 10556 ft | 311 kts | 199° |
| 2026-05-07 18:24 | 41.29312 | 28.58847 | 10753 ft | 339 kts | 199° |
| 2026-05-07 18:24 | 41.27029 | 28.57860 | 11071 ft | 358 kts | 199° |
| 2026-05-07 18:24 | 41.24632 | 28.56810 | 11769 ft | 365 kts | 199° |
| 2026-05-07 18:24 | 41.22217 | 28.55742 | 12582 ft | 368 kts | 199° |
| 2026-05-07 18:25 | 41.19782 | 28.54656 | 13401 ft | 371 kts | 199° |
| 2026-05-07 18:25 | 41.17319 | 28.53552 | 14148 ft | 375 kts | 200° |
| 2026-05-07 18:25 | 41.14832 | 28.52436 | 14813 ft | 380 kts | 200° |
| 2026-05-07 18:25 | 41.12310 | 28.51303 | 15508 ft | 384 kts | 200° |
| 2026-05-07 18:26 | 41.09766 | 28.50160 | 16173 ft | 389 kts | 200° |
| 2026-05-07 18:26 | 41.07188 | 28.49004 | 16831 ft | 393 kts | 200° |
| 2026-05-07 18:26 | 41.04587 | 28.47838 | 17484 ft | 397 kts | 200° |
| 2026-05-07 18:26 | 41.01955 | 28.46660 | 18133 ft | 402 kts | 200° |
| 2026-05-07 18:27 | 40.99295 | 28.45470 | 18716 ft | 406 kts | 201° |
| 2026-05-07 18:27 | 40.96610 | 28.44270 | 19277 ft | 409 kts | 201° |
| 2026-05-07 18:27 | 40.93900 | 28.43060 | 19841 ft | 413 kts | 201° |
| 2026-05-07 18:27 | 40.92094 | 28.42252 | 20210 ft | 415 kts | 202° |
| 2026-05-07 18:28 | 40.88819 | 28.39637 | 20907 ft | 413 kts | 227° |
| 2026-05-07 18:28 | 40.87103 | 28.36635 | 21481 ft | 410 kts | 244° |
| 2026-05-07 18:28 | 40.86110 | 28.33126 | 22006 ft | 409 kts | 259° |
| 2026-05-07 18:28 | 40.85573 | 28.29432 | 22534 ft | 411 kts | 262° |
| 2026-05-07 18:29 | 40.85077 | 28.25694 | 23018 ft | 415 kts | 262° |
| 2026-05-07 18:29 | 40.84552 | 28.21926 | 23512 ft | 419 kts | 261° |
| 2026-05-07 18:29 | 40.84186 | 28.19424 | 23818 ft | 420 kts | 261° |
| 2026-05-07 18:29 | 40.83420 | 28.14339 | 24395 ft | 423 kts | 260° |
| 2026-05-07 18:30 | 40.83036 | 28.11810 | 24685 ft | 425 kts | 260° |
| 2026-05-07 18:30 | 40.82454 | 28.07980 | 25112 ft | 427 kts | 260° |
| 2026-05-07 18:30 | 40.81868 | 28.04129 | 25529 ft | 429 kts | 260° |
| 2026-05-07 18:30 | 40.81280 | 28.00258 | 25928 ft | 431 kts | 260° |
| 2026-05-07 18:31 | 40.80688 | 27.96369 | 26325 ft | 433 kts | 260° |
| 2026-05-07 18:31 | 40.80092 | 27.92463 | 26705 ft | 435 kts | 260° |
| 2026-05-07 18:31 | 40.79534 | 27.88526 | 27081 ft | 437 kts | 264° |
| 2026-05-07 18:31 | 40.79348 | 27.84528 | 27437 ft | 438 kts | 272° |
| 2026-05-07 18:32 | 40.79319 | 27.80507 | 27782 ft | 441 kts | 264° |
| 2026-05-07 18:32 | 40.78456 | 27.76608 | 28108 ft | 448 kts | 246° |
| 2026-05-07 18:32 | 40.76754 | 27.73155 | 28535 ft | 452 kts | 232° |
| 2026-05-07 18:32 | 40.74447 | 27.70342 | 29016 ft | 455 kts | 217° |
| 2026-05-07 18:33 | 40.71714 | 27.68236 | 29577 ft | 455 kts | 211° |
| 2026-05-07 18:33 | 40.68918 | 27.66296 | 30035 ft | 455 kts | 210° |
| 2026-05-07 18:33 | 40.66095 | 27.64358 | 30084 ft | 460 kts | 210° |
| 2026-05-07 18:34 | 40.60462 | 27.60378 | 30092 ft | 457 kts | 211° |
| 2026-05-07 18:34 | 40.54936 | 27.56374 | 30106 ft | 453 kts | 212° |
| 2026-05-07 18:35 | 40.49435 | 27.52259 | 30105 ft | 455 kts | 212° |
| 2026-05-07 18:35 | 40.43922 | 27.48129 | 30106 ft | 457 kts | 212° |
| 2026-05-07 18:36 | 40.38420 | 27.44033 | 30109 ft | 458 kts | 212° |
| 2026-05-07 18:36 | 40.32876 | 27.39918 | 30112 ft | 458 kts | 212° |
| 2026-05-07 18:37 | 40.27073 | 27.36439 | 30111 ft | 462 kts | 198° |
| 2026-05-07 18:37 | 40.20732 | 27.34995 | 30112 ft | 464 kts | 189° |
| 2026-05-07 18:38 | 40.14331 | 27.33897 | 30112 ft | 464 kts | 189° |
| 2026-05-07 18:38 | 40.07950 | 27.32719 | 30115 ft | 463 kts | 190° |
| 2026-05-07 18:39 | 40.01576 | 27.31503 | 30120 ft | 463 kts | 190° |
| 2026-05-07 18:39 | 39.95202 | 27.30316 | 30110 ft | 462 kts | 189° |
| 2026-05-07 18:40 | 39.88835 | 27.29182 | 30122 ft | 462 kts | 190° |
| 2026-05-07 18:40 | 39.82482 | 27.27952 | 30119 ft | 461 kts | 191° |
| 2026-05-07 18:41 | 39.76121 | 27.26796 | 30130 ft | 462 kts | 189° |
| 2026-05-07 18:41 | 39.69743 | 27.25740 | 30121 ft | 462 kts | 189° |
| 2026-05-07 18:42 | 39.63387 | 27.24680 | 30117 ft | 454 kts | 189° |
| 2026-05-07 18:42 | 39.60321 | 27.24165 | 30108 ft | 436 kts | 189° |
| 2026-05-07 18:42 | 39.57362 | 27.23666 | 30106 ft | 420 kts | 189° |
| 2026-05-07 18:42 | 39.54515 | 27.23184 | 30109 ft | 405 kts | 190° |
| 2026-05-07 18:43 | 39.51762 | 27.22719 | 30111 ft | 392 kts | 190° |
| 2026-05-07 18:43 | 39.49105 | 27.22268 | 30108 ft | 378 kts | 190° |
| 2026-05-07 18:43 | 39.46545 | 27.21806 | 30112 ft | 365 kts | 191° |
| 2026-05-07 18:43 | 39.44070 | 27.21345 | 30110 ft | 353 kts | 191° |
| 2026-05-07 18:44 | 39.41683 | 27.20897 | 30106 ft | 341 kts | 191° |
| 2026-05-07 18:44 | 39.39379 | 27.20464 | 30113 ft | 328 kts | 191° |
| 2026-05-07 18:44 | 39.37156 | 27.20047 | 30106 ft | 318 kts | 191° |
| 2026-05-07 18:45 | 39.32747 | 27.19218 | 30155 ft | 329 kts | 191° |
| 2026-05-07 18:45 | 39.28128 | 27.18352 | 30005 ft | 335 kts | 191° |
| 2026-05-07 18:45 | 39.25813 | 27.17922 | 29450 ft | 340 kts | 191° |
| 2026-05-07 18:46 | 39.23419 | 27.17475 | 28364 ft | 359 kts | 191° |
| 2026-05-07 18:46 | 39.20855 | 27.16994 | 27006 ft | 385 kts | 191° |
| 2026-05-07 18:46 | 39.18124 | 27.16484 | 25703 ft | 407 kts | 191° |
| 2026-05-07 18:46 | 39.15254 | 27.15950 | 24492 ft | 425 kts | 191° |
| 2026-05-07 18:47 | 39.12286 | 27.15404 | 23582 ft | 433 kts | 191° |
| 2026-05-07 18:47 | 39.09312 | 27.14860 | 22909 ft | 430 kts | 191° |
| 2026-05-07 18:47 | 39.06367 | 27.14324 | 22398 ft | 424 kts | 191° |
| 2026-05-07 18:47 | 39.03458 | 27.13847 | 21937 ft | 418 kts | 187° |
| 2026-05-07 18:48 | 39.00583 | 27.13934 | 21679 ft | 411 kts | 176° |
| 2026-05-07 18:48 | 38.97787 | 27.14423 | 21421 ft | 401 kts | 174° |
| 2026-05-07 18:48 | 38.95057 | 27.14940 | 21153 ft | 392 kts | 174° |
| 2026-05-07 18:48 | 38.92378 | 27.15447 | 20901 ft | 388 kts | 175° |
| 2026-05-07 18:49 | 38.89695 | 27.15942 | 20666 ft | 391 kts | 175° |
| 2026-05-07 18:49 | 38.86994 | 27.16428 | 20413 ft | 393 kts | 175° |
| 2026-05-07 18:49 | 38.84289 | 27.16908 | 20170 ft | 392 kts | 175° |
| 2026-05-07 18:49 | 38.81587 | 27.17382 | 19929 ft | 392 kts | 175° |
| 2026-05-07 18:50 | 38.78879 | 27.17854 | 19692 ft | 392 kts | 175° |
| 2026-05-07 18:50 | 38.76174 | 27.18324 | 19461 ft | 393 kts | 175° |
| 2026-05-07 18:50 | 38.73398 | 27.18802 | 19245 ft | 410 kts | 175° |
| 2026-05-07 18:50 | 38.70557 | 27.19291 | 19010 ft | 415 kts | 175° |
| 2026-05-07 18:51 | 38.67700 | 27.19787 | 18775 ft | 413 kts | 175° |
| 2026-05-07 18:51 | 38.64883 | 27.20278 | 18528 ft | 404 kts | 175° |
| 2026-05-07 18:51 | 38.62112 | 27.20761 | 18141 ft | 399 kts | 175° |
| 2026-05-07 18:51 | 38.59416 | 27.21229 | 17619 ft | 396 kts | 175° |
| 2026-05-07 18:52 | 38.56683 | 27.21700 | 17005 ft | 396 kts | 175° |
| 2026-05-07 18:52 | 38.53990 | 27.22165 | 16734 ft | 386 kts | 175° |
| 2026-05-07 18:52 | 38.51368 | 27.22619 | 16627 ft | 372 kts | 175° |
| 2026-05-07 18:52 | 38.48808 | 27.23063 | 16431 ft | 362 kts | 176° |
| 2026-05-07 18:53 | 38.46343 | 27.23486 | 15880 ft | 361 kts | 175° |
| 2026-05-07 18:53 | 38.43890 | 27.23908 | 15516 ft | 349 kts | 175° |
| 2026-05-07 18:53 | 38.41545 | 27.24313 | 15342 ft | 332 kts | 176° |
| 2026-05-07 18:53 | 38.39313 | 27.24697 | 15215 ft | 316 kts | 176° |
| 2026-05-07 18:54 | 38.37185 | 27.25062 | 15009 ft | 304 kts | 176° |
| 2026-05-07 18:54 | 38.35105 | 27.25417 | 14623 ft | 300 kts | 176° |
| 2026-05-07 18:54 | 38.33038 | 27.25770 | 14180 ft | 299 kts | 176° |
| 2026-05-07 18:54 | 38.30988 | 27.26120 | 13750 ft | 295 kts | 175° |
| 2026-05-07 18:55 | 38.28987 | 27.26568 | 13204 ft | 290 kts | 171° |
| 2026-05-07 18:55 | 38.27022 | 27.27155 | 12550 ft | 290 kts | 168° |
| 2026-05-07 18:55 | 38.25072 | 27.27768 | 11936 ft | 287 kts | 168° |
| 2026-05-07 18:55 | 38.23149 | 27.28368 | 11397 ft | 282 kts | 168° |
| 2026-05-07 18:56 | 38.21277 | 27.28944 | 11002 ft | 270 kts | 168° |
| 2026-05-07 18:56 | 38.19471 | 27.29492 | 10507 ft | 264 kts | 167° |
| 2026-05-07 18:56 | 38.17696 | 27.30025 | 9963 ft | 261 kts | 167° |
| 2026-05-07 18:56 | 38.15937 | 27.30551 | 9381 ft | 258 kts | 167° |
| 2026-05-07 18:57 | 38.14205 | 27.31068 | 8766 ft | 255 kts | 167° |
| 2026-05-07 18:57 | 38.12488 | 27.31579 | 8153 ft | 253 kts | 167° |
| 2026-05-07 18:57 | 38.10784 | 27.32071 | 7543 ft | 250 kts | 171° |
| 2026-05-07 18:57 | 38.09094 | 27.31786 | 6915 ft | 248 kts | 207° |
| 2026-05-07 18:58 | 38.07906 | 27.30288 | 6337 ft | 243 kts | 245° |
| 2026-05-07 18:58 | 38.07477 | 27.28241 | 5730 ft | 239 kts | 264° |
| 2026-05-07 18:58 | 38.07545 | 27.26120 | 4989 ft | 243 kts | 283° |
| 2026-05-07 18:58 | 38.08225 | 27.24183 | 4341 ft | 240 kts | 307° |
| 2026-05-07 18:59 | 38.09366 | 27.22738 | 4067 ft | 224 kts | 323° |
| 2026-05-07 18:59 | 38.10638 | 27.21700 | 3799 ft | 211 kts | 329° |
| 2026-05-07 18:59 | 38.11927 | 27.20924 | 3542 ft | 200 kts | 339° |
| 2026-05-07 18:59 | 38.13224 | 27.20375 | 3288 ft | 195 kts | 343° |
| 2026-05-07 19:00 | 38.14517 | 27.19933 | 3038 ft | 191 kts | 345° |
| 2026-05-07 19:00 | 38.15794 | 27.19534 | 2789 ft | 187 kts | 345° |
| 2026-05-07 19:00 | 38.17030 | 27.19158 | 2555 ft | 177 kts | 345° |
| 2026-05-07 19:00 | 38.18184 | 27.18810 | 2341 ft | 170 kts | 345° |
| 2026-05-07 19:01 | 38.19328 | 27.18464 | 2104 ft | 168 kts | 345° |
| 2026-05-07 19:01 | 38.20433 | 27.18132 | 1882 ft | 161 kts | 345° |
| 2026-05-07 19:01 | 38.21493 | 27.17813 | 1666 ft | 149 kts | 345° |
| 2026-05-07 19:01 | 38.22474 | 27.17517 | 1471 ft | 142 kts | 345° |
| 2026-05-07 19:02 | 38.23445 | 27.17233 | 1363 ft | 144 kts | 347° |
| 2026-05-07 19:02 | 38.24441 | 27.16971 | 1241 ft | 147 kts | 347° |
| 2026-05-07 19:02 | 38.25436 | 27.16676 | 1033 ft | 151 kts | 345° |
| 2026-05-07 19:02 | 38.26454 | 27.16335 | 721 ft | 150 kts | 346° |
| 2026-05-07 19:03 | 38.27454 | 27.16020 | 530 ft | 144 kts | 346° |
| 2026-05-07 19:03 | 38.28420 | 27.15725 | 419 ft | 142 kts | 347° |
| 2026-05-07 19:03 | 38.29190 | 27.15495 | 411 ft | 83 kts | 347° |
| 2026-05-07 19:03 | 38.29549 | 27.15387 | 415 ft | 27 kts | 347° |
| 2026-05-07 19:04 | 38.29739 | 27.15330 | 414 ft | 26 kts | 346° |
| 2026-05-07 19:04 | 38.29908 | 27.15277 | 415 ft | 24 kts | 345° |
| 2026-05-07 19:04 | 38.29985 | 27.15206 | 416 ft | 11 kts | 265° |
| 2026-05-07 19:04 | 38.29965 | 27.15093 | 407 ft | 15 kts | 257° |
| 2026-05-07 19:05 | 38.29950 | 27.15007 | 408 ft | 9 kts | 258° |
| 2026-05-07 19:05 | 38.29908 | 27.14962 | 410 ft | 10 kts | 173° |
| 2026-05-07 19:05 | 38.29825 | 27.14985 | 409 ft | 14 kts | 167° |
| 2026-05-07 19:05 | 38.29736 | 27.15007 | 410 ft | 11 kts | 188° |
| 2026-05-07 19:06 | 38.29713 | 27.14945 | 410 ft | 3 kts | 258° |
| 2026-05-07 19:06 | 38.29709 | 27.14924 | 410 ft | 0 kts | 256° |